Huvudsida
METAR-TAF:

METAR-TAF

Flygplatser :

Djibouti, Djibouti

latitud: 11-33N, longitud: 043-10E, höjd: 49 m

Aktuellt väderrapport

Denna rapport gjordes för 3 timmar och 10 minuter sedan, klockan 10:00 UTC
Vind 10 kt från ost/sydost
Temperatur 32°C
Fuktighet 56%
Tryck 1009 hPa
Sikt 10 km eller mer
Spridda moln på en höjd av 2300 ft

METAR: HDAM 221000Z 12010KT 9999 SCT023 32/22 Q1009

Tid: 16:10 (13:10 UTC)

Väderprognos

Denna rapport gjordes för 2 timmar och 10 minuter sedan, klockan 11:00 UTC
Prognos gäller från 22 kl. 12 UTC till 23 kl. 12 UTC
Vind 12 kt från ost/nordost
Sikt 10 km eller mer
Spridda moln på en höjd av 2300 ft
Blir
från 22 kl. 18 UTC till 22 kl. 21 UTC
Vind 6 kt från syd/sydost
Få moln på en höjd av 2000 ft
Blir
från 23 kl. 00 UTC till 23 kl. 06 UTC
Vind 4 kt från väst/sydväst
Spridda moln på en höjd av 2000 ft

TAF: HDAM 221100Z 2212/2312 07012KT 9999 SCT023 BECMG 2218/2221 16006KT FEW020 BECMG 2300/2306 25004KT SCT020

Aktuella väderrapporter och prognoser från 4000 flygplatser (METAR- och TAF-rapporter).

De tillgängliga stationerna syns som gula och röda prickar på kartan.

För musen över prickarna för att se namnen på stationerna.

Klicka sedan för att få väderrapporter och prognoser.

För att ändra kartan: Klicka på de gröna knapparna med ett svart kors på för att zooma in; den gröna knappen med ett streck på för att zooma ut; eller på de gröna pilarna för angränsande kartor.


METAR-TAF: